createdAt,value
2023-02-12T00:00:24.945Z,92.06
2023-02-12T00:00:56.554Z,92.19
2023-02-12T00:01:28.887Z,92.14
2023-02-12T00:02:00.759Z,92.32
2023-02-12T00:02:32.238Z,92.12
2023-02-12T00:03:04.177Z,92.07
2023-02-12T00:03:36.139Z,92.57
2023-02-12T00:04:07.619Z,92.73
2023-02-12T00:04:39.110Z,92.20
2023-02-12T00:05:10.963Z,91.96
2023-02-12T00:05:42.411Z,92.48
2023-02-12T00:06:16.004Z,92.39
2023-02-12T00:06:47.801Z,92.53
2023-02-12T00:07:19.210Z,92.50
2023-02-12T00:07:50.784Z,92.38
2023-02-12T00:08:22.312Z,92.59
2023-02-12T00:08:57.428Z,92.53
2023-02-12T00:09:28.831Z,92.70
2023-02-12T00:10:00.525Z,92.16
2023-02-12T00:10:32.043Z,92.57
2023-02-12T00:11:16.037Z,91.85
2023-02-12T00:11:47.496Z,92.30
2023-02-12T00:12:18.961Z,92.41
2023-02-12T00:12:50.563Z,92.82
2023-02-12T00:13:22.354Z,92.52
2023-02-12T00:13:54.845Z,92.43
2023-02-12T00:14:26.334Z,92.27
2023-02-12T00:14:57.817Z,92.47
2023-02-12T00:15:29.546Z,92.69
2023-02-12T00:16:05.563Z,92.64
2023-02-12T00:16:37.019Z,92.37
2023-02-12T00:17:08.438Z,92.44
2023-02-12T00:17:40.003Z,92.22
2023-02-12T00:18:11.616Z,92.32
2023-02-12T00:18:44.274Z,92.06
2023-02-12T00:19:15.765Z,92.26
2023-02-12T00:19:48.254Z,92.15
2023-02-12T00:20:19.721Z,92.57
2023-02-12T00:20:51.168Z,92.54
2023-02-12T00:21:23.879Z,92.21
2023-02-12T00:21:55.370Z,92.32
2023-02-12T00:22:28.054Z,92.47
2023-02-12T00:22:59.549Z,92.46
2023-02-12T00:23:31.551Z,92.20
2023-02-12T00:24:05.987Z,92.23
2023-02-12T00:24:37.491Z,92.17
2023-02-12T00:25:09.513Z,92.28
2023-02-12T00:25:42.317Z,92.45
2023-02-12T00:26:16.948Z,91.67
2023-02-12T00:26:48.952Z,92.60
2023-02-12T00:27:20.373Z,92.28
2023-02-12T00:27:51.763Z,92.79
2023-02-12T00:28:25.052Z,91.97
2023-02-12T00:28:56.615Z,92.85
2023-02-12T00:29:28.232Z,91.83
2023-02-12T00:29:59.760Z,92.29
2023-02-12T00:30:33.854Z,92.37
2023-02-12T00:31:12.660Z,92.20
2023-02-12T00:31:44.288Z,92.27
2023-02-12T00:32:19.986Z,91.86
2023-02-12T00:32:51.466Z,92.16
2023-02-12T00:33:22.961Z,92.74
2023-02-12T00:33:55.300Z,92.11
2023-02-12T00:34:26.762Z,92.07
2023-02-12T00:34:58.542Z,92.27
2023-02-12T00:35:30.315Z,92.14
2023-02-12T00:36:02.383Z,91.92
2023-02-12T00:36:36.061Z,92.34
2023-02-12T00:37:07.451Z,92.36
2023-02-12T00:37:38.836Z,92.78
2023-02-12T00:38:10.300Z,92.14
2023-02-12T00:38:42.618Z,92.15
2023-02-12T00:39:14.075Z,92.08
2023-02-12T00:39:48.850Z,92.39
2023-02-12T00:40:20.657Z,92.24
2023-02-12T00:40:52.353Z,92.45
2023-02-12T00:41:24.328Z,92.88
2023-02-12T00:41:55.843Z,92.36
2023-02-12T00:42:27.378Z,92.16
2023-02-12T00:42:58.830Z,92.35
2023-02-12T00:43:30.347Z,92.39
2023-02-12T00:44:02.269Z,92.31
2023-02-12T00:44:33.825Z,92.27
2023-02-12T00:45:05.685Z,92.39
2023-02-12T00:45:38.024Z,92.48
2023-02-12T00:46:09.725Z,92.46
2023-02-12T00:46:41.287Z,92.49
2023-02-12T00:47:12.795Z,92.86
2023-02-12T00:47:45.884Z,92.70
2023-02-12T00:48:18.138Z,92.08
2023-02-12T00:48:52.555Z,92.32
2023-02-12T00:49:26.453Z,92.13
2023-02-12T00:49:57.983Z,92.23
2023-02-12T00:50:31.920Z,92.38
2023-02-12T00:51:04.335Z,92.45
2023-02-12T00:51:35.871Z,92.47
2023-02-12T00:52:07.331Z,92.27
2023-02-12T00:52:38.875Z,92.42
2023-02-12T00:53:12.717Z,92.45
2023-02-12T00:53:44.458Z,92.43
2023-02-12T00:54:15.924Z,91.78
2023-02-12T00:54:47.324Z,92.15
2023-02-12T00:55:19.148Z,92.38
2023-02-12T00:55:50.577Z,92.27
2023-02-12T00:56:22.081Z,92.52
2023-02-12T00:56:53.735Z,92.56
2023-02-12T00:57:25.244Z,92.63
2023-02-12T00:57:59.613Z,92.42
2023-02-12T00:58:31.056Z,92.31
2023-02-12T00:59:02.507Z,92.26
2023-02-12T00:59:36.416Z,92.43
2023-02-12T01:00:08.390Z,92.56
2023-02-12T01:00:40.115Z,92.46
2023-02-12T01:01:11.810Z,92.03
2023-02-12T01:01:43.346Z,92.11
2023-02-12T01:02:14.876Z,92.01
2023-02-12T01:02:46.305Z,92.45
2023-02-12T01:03:17.798Z,92.06
2023-02-12T01:03:49.347Z,91.80
2023-02-12T01:04:21.118Z,92.07
2023-02-12T01:04:52.696Z,92.31
2023-02-12T01:05:24.528Z,92.38
2023-02-12T01:05:57.362Z,92.48
2023-02-12T01:06:29.174Z,92.14
2023-02-12T01:07:00.631Z,92.27
2023-02-12T01:07:32.068Z,92.51
2023-02-12T01:08:04.658Z,92.26
2023-02-12T01:08:36.159Z,91.98
2023-02-12T01:09:07.867Z,92.24
2023-02-12T01:09:39.315Z,92.43
2023-02-12T01:10:10.950Z,91.82
2023-02-12T01:10:44.249Z,92.29
2023-02-12T01:11:15.681Z,92.08
2023-02-12T01:11:47.239Z,92.35
2023-02-12T01:12:18.739Z,92.09
2023-02-12T01:12:50.420Z,92.84
2023-02-12T01:13:21.952Z,92.34
2023-02-12T01:14:12.074Z,92.19
2023-02-12T01:14:43.513Z,92.42
2023-02-12T01:15:16.818Z,92.75
2023-02-12T01:15:48.545Z,92.41
2023-02-12T01:16:23.675Z,92.99
2023-02-12T01:16:55.068Z,92.48
2023-02-12T01:17:26.430Z,92.32
2023-02-12T01:17:57.817Z,92.71
2023-02-12T01:18:29.386Z,92.88
2023-02-12T01:19:00.816Z,92.44
2023-02-12T01:19:32.253Z,92.65
2023-02-12T01:20:07.185Z,92.52
2023-02-12T01:20:40.064Z,92.78
2023-02-12T01:21:13.963Z,92.13
2023-02-12T01:21:45.427Z,92.53
2023-02-12T01:22:17.044Z,92.53
2023-02-12T01:22:48.684Z,92.63
2023-02-12T01:24:09.956Z,92.64
2023-02-12T01:24:41.527Z,92.25
2023-02-12T01:25:13.442Z,92.14
2023-02-12T01:25:45.034Z,91.99
2023-02-12T01:26:19.241Z,92.61
2023-02-12T01:26:50.618Z,92.27
2023-02-12T01:27:22.105Z,92.12
2023-02-12T01:27:54.330Z,92.19
2023-02-12T01:28:25.847Z,92.56
2023-02-12T01:29:01.414Z,92.42
2023-02-12T01:29:33.338Z,92.48
2023-02-12T01:30:09.052Z,92.76
2023-02-12T01:30:41.675Z,92.55
2023-02-12T01:31:18.889Z,92.57
2023-02-12T01:31:50.463Z,92.62
2023-02-12T01:32:22.141Z,92.83
2023-02-12T01:32:55.533Z,92.55
2023-02-12T01:33:27.154Z,92.48
2023-02-12T01:34:00.306Z,92.50
2023-02-12T01:34:31.732Z,92.70
2023-02-12T01:35:04.125Z,92.81
2023-02-12T01:35:37.983Z,92.36
2023-02-12T01:36:10.994Z,92.99
2023-02-12T01:36:42.402Z,92.55
2023-02-12T01:37:16.015Z,92.64
2023-02-12T01:37:47.371Z,92.33
2023-02-12T01:38:18.840Z,92.91
2023-02-12T01:38:50.799Z,92.54
2023-02-12T01:39:22.786Z,92.84
2023-02-12T01:39:54.306Z,92.67
2023-02-12T01:40:25.987Z,92.44
2023-02-12T01:41:09.283Z,92.03
2023-02-12T01:41:44.267Z,92.83
2023-02-12T01:42:18.620Z,92.77
2023-02-12T01:42:50.041Z,92.79
2023-02-12T01:43:21.495Z,92.68
2023-02-12T01:44:15.746Z,92.64
2023-02-12T01:45:14.822Z,92.98
2023-02-12T01:45:50.153Z,92.78
2023-02-12T01:46:21.573Z,92.35
2023-02-12T01:47:04.520Z,92.50
2023-02-12T01:47:36.101Z,92.76
2023-02-12T01:48:07.781Z,92.49
2023-02-12T01:48:43.389Z,92.70
2023-02-12T01:49:21.692Z,92.93
2023-02-12T01:49:53.237Z,92.38
2023-02-12T01:50:24.780Z,93.12
2023-02-12T01:50:58.350Z,92.93
2023-02-12T01:51:32.470Z,92.76
2023-02-12T01:52:24.975Z,93.19
2023-02-12T01:52:58.692Z,92.68
2023-02-12T01:53:35.626Z,93.43
2023-02-12T01:54:10.655Z,93.24
2023-02-12T01:54:44.678Z,93.51
2023-02-12T01:55:16.987Z,93.63
2023-02-12T01:55:50.842Z,93.33
2023-02-12T01:56:24.108Z,93.19
2023-02-12T01:56:55.708Z,93.08
2023-02-12T01:57:29.845Z,93.45
2023-02-12T01:58:01.446Z,92.66
2023-02-12T01:58:37.179Z,93.39
2023-02-12T01:59:09.122Z,92.93
2023-02-12T01:59:43.169Z,92.95
2023-02-12T02:00:21.084Z,92.85
2023-02-12T02:00:53.345Z,92.55
2023-02-12T02:01:29.048Z,92.40
2023-02-12T02:02:00.758Z,92.42
2023-02-12T02:02:32.499Z,92.75
2023-02-12T02:03:04.659Z,92.34
2023-02-12T02:03:40.921Z,92.81
2023-02-12T02:04:17.175Z,92.66
2023-02-12T02:04:52.637Z,93.00
2023-02-12T02:05:38.972Z,93.03
2023-02-12T02:06:16.303Z,92.86
2023-02-12T02:06:53.392Z,92.67
2023-02-12T02:07:24.940Z,92.40
2023-02-12T02:07:56.533Z,92.29
2023-02-12T02:08:28.605Z,92.70
2023-02-12T02:09:01.066Z,92.72
2023-02-12T02:09:36.133Z,92.60
2023-02-12T02:10:08.980Z,92.71
2023-02-12T02:10:40.894Z,92.95
2023-02-12T02:11:30.705Z,93.32
2023-02-12T02:12:20.536Z,92.87
2023-02-12T02:13:10.585Z,92.69
2023-02-12T02:14:00.688Z,92.63
2023-02-12T02:14:32.398Z,92.76
2023-02-12T02:15:04.854Z,92.89
2023-02-12T02:15:39.202Z,92.62
2023-02-12T02:16:26.445Z,92.88
2023-02-12T02:17:06.578Z,92.77
2023-02-12T02:18:02.511Z,92.56
2023-02-12T02:18:44.529Z,92.91
2023-02-12T02:19:44.994Z,92.80
2023-02-12T02:20:34.883Z,92.57
2023-02-12T02:21:24.593Z,92.79
2023-02-12T02:22:13.873Z,93.31
2023-02-12T02:22:50.788Z,93.20
2023-02-12T02:23:56.654Z,92.63
2023-02-12T02:24:37.067Z,92.71
2023-02-12T02:25:30.366Z,93.00
2023-02-12T02:26:27.900Z,93.07
2023-02-12T02:27:13.889Z,93.52
2023-02-12T02:28:12.947Z,92.73
2023-02-12T02:29:31.801Z,92.87
2023-02-12T02:30:27.985Z,92.56
2023-02-12T02:31:26.557Z,92.52
2023-02-12T02:32:12.915Z,92.96
2023-02-12T02:32:50.183Z,93.17
2023-02-12T02:33:37.872Z,93.25
2023-02-12T02:34:22.064Z,92.73
2023-02-12T02:35:05.014Z,92.26
2023-02-12T02:36:06.736Z,93.29
2023-02-12T02:36:59.664Z,92.77
2023-02-12T02:37:39.333Z,93.55
2023-02-12T02:38:42.793Z,93.67
2023-02-12T02:39:23.209Z,92.92
2023-02-12T02:40:13.683Z,92.86
2023-02-12T02:40:54.139Z,93.29
2023-02-12T02:41:32.911Z,93.26
2023-02-12T02:42:25.032Z,93.43
2023-02-12T02:43:03.226Z,93.13
2023-02-12T02:43:47.186Z,93.52
2023-02-12T02:44:26.269Z,93.51
2023-02-12T02:45:08.246Z,93.41
2023-02-12T02:45:51.763Z,93.21
2023-02-12T02:46:32.510Z,92.77
2023-02-12T02:47:07.735Z,93.16
2023-02-12T02:47:47.099Z,92.72
2023-02-12T02:48:29.543Z,92.98
2023-02-12T02:49:05.321Z,93.10
2023-02-12T02:49:45.928Z,93.16
2023-02-12T02:50:21.942Z,93.24
2023-02-12T02:50:58.970Z,93.23
2023-02-12T02:51:48.730Z,92.59
2023-02-12T02:52:30.844Z,93.33
2023-02-12T02:53:06.047Z,93.05
2023-02-12T02:53:47.096Z,92.83
2023-02-12T02:54:42.454Z,93.46
2023-02-12T02:55:18.803Z,92.97
2023-02-12T02:55:54.192Z,92.67
2023-02-12T02:56:28.347Z,93.20
2023-02-12T02:57:07.335Z,93.06
2023-02-12T02:57:45.452Z,92.97
2023-02-12T02:58:21.654Z,93.55
2023-02-12T02:59:01.510Z,93.73
2023-02-12T02:59:38.357Z,93.82
2023-02-12T03:00:24.737Z,93.98
2023-02-12T03:01:05.678Z,93.81
2023-02-12T03:02:08.255Z,93.65
2023-02-12T03:02:44.836Z,94.10
2023-02-12T03:03:27.422Z,93.43
2023-02-12T03:04:36.949Z,94.15
2023-02-12T03:05:23.706Z,93.69
2023-02-12T03:06:05.324Z,94.02
2023-02-12T03:06:47.219Z,93.87
2023-02-12T03:07:33.133Z,93.33
2023-02-12T03:08:18.072Z,94.09
2023-02-12T03:09:58.437Z,94.08
2023-02-12T03:10:36.501Z,93.54
2023-02-12T03:11:14.969Z,93.12
2023-02-12T03:11:47.125Z,93.58
2023-02-12T03:12:25.781Z,93.61
2023-02-12T03:13:09.935Z,93.66
2023-02-12T03:13:48.165Z,94.10
2023-02-12T03:14:38.235Z,94.23
2023-02-12T03:15:20.176Z,93.66
2023-02-12T03:15:51.548Z,93.43
2023-02-12T03:16:29.369Z,93.56
2023-02-12T03:17:06.756Z,94.15
2023-02-12T03:17:45.444Z,94.17
2023-02-12T03:18:25.566Z,93.64
2023-02-12T03:19:06.713Z,93.80
2023-02-12T03:19:44.859Z,93.58
2023-02-12T03:20:26.431Z,93.48
2023-02-12T03:21:02.414Z,94.21
2023-02-12T03:21:48.459Z,93.87
2023-02-12T03:22:27.096Z,94.24
2023-02-12T03:23:06.774Z,93.86
2023-02-12T03:23:47.312Z,93.55
2023-02-12T03:24:42.921Z,93.83
2023-02-12T03:25:22.788Z,93.88
2023-02-12T03:26:08.982Z,93.69
2023-02-12T03:26:52.113Z,93.75
2023-02-12T03:27:30.764Z,93.82
2023-02-12T03:28:11.379Z,93.94
2023-02-12T03:28:42.912Z,93.70
2023-02-12T03:29:14.978Z,93.45
2023-02-12T03:29:47.125Z,93.49
2023-02-12T03:30:20.796Z,93.25
2023-02-12T03:31:16.293Z,93.08
2023-02-12T03:32:00.929Z,93.40
2023-02-12T03:32:57.010Z,93.80
2023-02-12T03:33:46.749Z,93.30
2023-02-12T03:34:38.091Z,93.74
2023-02-12T03:35:23.956Z,93.47
2023-02-12T03:36:03.255Z,93.14
2023-02-12T03:36:46.482Z,93.67
2023-02-12T03:37:33.065Z,93.41
2023-02-12T03:38:16.264Z,93.80
2023-02-12T03:38:54.134Z,93.32
2023-02-12T03:39:43.816Z,93.10
2023-02-12T03:40:28.293Z,93.49
2023-02-12T03:41:03.954Z,93.04
2023-02-12T03:41:55.518Z,93.31
2023-02-12T03:42:35.615Z,93.84
2023-02-12T03:43:14.387Z,93.51
2023-02-12T03:43:54.317Z,93.89
2023-02-12T03:44:28.252Z,93.82
2023-02-12T03:45:20.657Z,93.33
2023-02-12T03:46:12.327Z,93.74
2023-02-12T03:46:57.848Z,93.49
2023-02-12T03:47:42.890Z,93.84
2023-02-12T03:48:56.792Z,93.59
2023-02-12T03:50:16.677Z,93.61
2023-02-12T03:50:57.084Z,93.96
2023-02-12T03:51:33.014Z,94.08
2023-02-12T03:52:04.776Z,93.65
2023-02-12T03:52:36.646Z,93.86
2023-02-12T03:53:08.303Z,93.89
2023-02-12T03:53:39.916Z,93.80
2023-02-12T03:54:14.165Z,94.22
2023-02-12T03:54:46.029Z,93.92
2023-02-12T03:55:17.724Z,93.98
2023-02-12T03:55:53.336Z,93.72
2023-02-12T03:56:41.916Z,93.96
2023-02-12T03:57:21.667Z,93.41
2023-02-12T03:57:59.452Z,93.48
2023-02-12T03:58:34.353Z,93.52
2023-02-12T03:59:06.510Z,94.03
2023-02-12T03:59:39.650Z,94.47
2023-02-12T04:00:21.407Z,95.00
2023-02-12T04:00:53.367Z,94.47
2023-02-12T04:01:25.347Z,94.47
2023-02-12T04:01:59.472Z,94.39
2023-02-12T04:02:31.463Z,94.19
2023-02-12T04:03:05.716Z,94.33
2023-02-12T04:03:37.736Z,94.15
2023-02-12T04:04:12.456Z,94.39
2023-02-12T04:04:45.256Z,93.83
2023-02-12T04:05:20.856Z,93.95
2023-02-12T04:05:52.332Z,93.67
2023-02-12T04:06:28.949Z,94.01
2023-02-12T04:07:01.170Z,93.46
2023-02-12T04:07:33.419Z,93.57
2023-02-12T04:08:09.583Z,93.80
2023-02-12T04:08:41.025Z,93.84
2023-02-12T04:09:13.331Z,93.69
2023-02-12T04:09:44.911Z,94.21
2023-02-12T04:10:17.298Z,93.46
2023-02-12T04:11:22.396Z,93.98
2023-02-12T04:12:01.126Z,93.41
2023-02-12T04:12:43.885Z,93.95
2023-02-12T04:13:26.444Z,94.04
2023-02-12T04:14:12.698Z,93.66
2023-02-12T04:15:03.645Z,93.51
2023-02-12T04:16:05.188Z,93.83
2023-02-12T04:16:54.405Z,93.92
2023-02-12T04:17:32.714Z,94.37
2023-02-12T04:18:19.210Z,94.19
2023-02-12T04:18:51.541Z,94.45
2023-02-12T04:19:41.481Z,94.15
2023-02-12T04:20:37.428Z,95.12
2023-02-12T04:21:41.703Z,94.59
2023-02-12T04:22:45.474Z,94.97
2023-02-12T04:23:32.497Z,95.10
2023-02-12T04:24:12.389Z,94.92
2023-02-12T04:25:22.212Z,94.71
2023-02-12T04:26:02.825Z,94.50
2023-02-12T04:26:54.466Z,94.46
2023-02-12T04:27:35.506Z,94.66
2023-02-12T04:28:29.427Z,94.37
2023-02-12T04:29:42.547Z,94.64
2023-02-12T04:30:22.754Z,94.40
2023-02-12T04:31:03.920Z,94.56
2023-02-12T04:31:58.226Z,95.00
2023-02-12T04:32:45.044Z,94.92
2023-02-12T04:33:21.950Z,94.68
2023-02-12T04:34:13.812Z,94.54
2023-02-12T04:34:58.769Z,94.29
2023-02-12T04:35:35.787Z,94.59
2023-02-12T04:36:15.535Z,94.71
2023-02-12T04:36:56.768Z,94.95
2023-02-12T04:37:52.205Z,94.85
2023-02-12T04:38:36.406Z,94.34
2023-02-12T04:39:12.324Z,94.99
2023-02-12T04:39:45.624Z,94.71
2023-02-12T04:40:19.961Z,94.69
2023-02-12T04:40:52.125Z,94.93
2023-02-12T04:41:25.467Z,94.53
2023-02-12T04:41:59.819Z,95.08
2023-02-12T04:42:31.398Z,95.47
2023-02-12T04:43:03.100Z,95.18
2023-02-12T04:43:37.194Z,95.45
2023-02-12T04:44:26.666Z,95.47
2023-02-12T04:44:58.057Z,95.34
2023-02-12T04:45:33.080Z,95.05
2023-02-12T04:46:06.626Z,95.59
2023-02-12T04:46:38.063Z,95.48
2023-02-12T04:47:16.863Z,95.29
2023-02-12T04:47:48.251Z,95.72
2023-02-12T04:48:20.210Z,95.60
2023-02-12T04:48:57.918Z,95.73
2023-02-12T04:49:30.770Z,95.27
2023-02-12T04:50:02.226Z,95.67
2023-02-12T04:50:40.658Z,95.81
2023-02-12T04:51:12.020Z,95.52
2023-02-12T04:51:44.642Z,95.00
2023-02-12T04:52:16.118Z,95.17
2023-02-12T04:52:47.844Z,95.08
2023-02-12T04:53:19.950Z,95.23
2023-02-12T04:53:51.396Z,94.99
2023-02-12T04:54:23.721Z,95.56
2023-02-12T04:54:55.195Z,95.68
2023-02-12T04:55:26.872Z,95.73
2023-02-12T04:56:00.763Z,95.93
2023-02-12T04:56:32.247Z,95.60
2023-02-12T04:57:03.981Z,95.33
2023-02-12T04:57:35.422Z,95.48
2023-02-12T04:58:06.884Z,95.66
2023-02-12T04:58:38.423Z,95.68
2023-02-12T04:59:10.127Z,95.34
2023-02-12T04:59:46.697Z,95.41
2023-02-12T05:00:18.307Z,95.74
2023-02-12T05:00:49.827Z,95.73
2023-02-12T05:01:21.231Z,95.94
2023-02-12T05:01:52.746Z,95.94
2023-02-12T05:02:24.326Z,96.16
2023-02-12T05:02:55.756Z,95.81
2023-02-12T05:03:27.236Z,95.88
2023-02-12T05:03:58.696Z,96.04
2023-02-12T05:04:30.387Z,95.78
2023-02-12T05:05:02.398Z,95.85
2023-02-12T05:05:34.200Z,95.60
2023-02-12T05:06:09.554Z,96.08
2023-02-12T05:06:41.607Z,95.71
2023-02-12T05:07:13.068Z,95.91
2023-02-12T05:07:44.538Z,95.28
2023-02-12T05:08:16.044Z,95.41
2023-02-12T05:08:47.554Z,95.20
2023-02-12T05:09:20.488Z,95.56
2023-02-12T05:09:52.183Z,95.43
2023-02-12T05:10:23.660Z,95.19
2023-02-12T05:10:55.194Z,95.37
2023-02-12T05:11:27.002Z,95.41
2023-02-12T05:11:58.431Z,95.15
2023-02-12T05:12:30.011Z,95.06
2023-02-12T05:13:01.602Z,94.77
2023-02-12T05:13:33.605Z,94.77
2023-02-12T05:14:05.041Z,95.23
2023-02-12T05:15:25.344Z,94.80
2023-02-12T05:15:57.134Z,94.93
2023-02-12T05:16:28.829Z,94.68
2023-02-12T05:17:00.876Z,94.65
2023-02-12T05:17:32.350Z,94.80
2023-02-12T05:18:03.926Z,94.86
2023-02-12T05:19:24.300Z,95.13
2023-02-12T05:19:55.696Z,95.31
2023-02-12T05:20:27.127Z,94.75
2023-02-12T05:21:00.805Z,95.09
2023-02-12T05:21:32.293Z,94.68
2023-02-12T05:22:03.727Z,94.60
2023-02-12T05:22:35.134Z,94.89
2023-02-12T05:23:06.643Z,94.56
2023-02-12T05:23:39.969Z,94.95
2023-02-12T05:24:11.369Z,95.05
2023-02-12T05:24:42.964Z,95.35
2023-02-12T05:25:14.419Z,95.21
2023-02-12T05:25:45.890Z,94.70
2023-02-12T05:26:21.162Z,94.50
2023-02-12T05:26:53.150Z,94.82
2023-02-12T05:27:24.604Z,94.89
2023-02-12T05:27:58.478Z,95.10
2023-02-12T05:28:30.946Z,94.75
2023-02-12T05:29:03.333Z,95.17
2023-02-12T05:29:35.943Z,94.33
2023-02-12T05:30:09.544Z,94.53
2023-02-12T05:30:41.062Z,94.93
2023-02-12T05:31:20.821Z,95.21
2023-02-12T05:31:52.871Z,95.58
2023-02-12T05:32:24.725Z,95.36
2023-02-12T05:32:56.279Z,95.38
2023-02-12T05:33:28.257Z,95.46
2023-02-12T05:33:59.875Z,95.84
2023-02-12T05:34:31.452Z,95.73
2023-02-12T05:35:02.943Z,95.57
2023-02-12T05:35:35.328Z,95.12
2023-02-12T05:36:09.676Z,94.92
2023-02-12T05:36:41.304Z,95.37
2023-02-12T05:37:12.771Z,94.76
2023-02-12T05:37:44.222Z,95.09
2023-02-12T05:38:15.685Z,95.18
2023-02-12T05:38:47.613Z,94.70
2023-02-12T05:39:19.197Z,95.25
2023-02-12T05:39:50.832Z,95.12
2023-02-12T05:40:24.308Z,94.78
2023-02-12T05:41:04.932Z,94.77
2023-02-12T05:41:36.375Z,95.59
2023-02-12T05:42:07.788Z,95.51
2023-02-12T05:42:39.282Z,95.47
2023-02-12T05:43:11.107Z,95.81
2023-02-12T05:43:43.192Z,95.86
2023-02-12T05:44:15.222Z,95.46
2023-02-12T05:44:46.884Z,95.11
2023-02-12T05:45:18.312Z,95.12
2023-02-12T05:45:49.796Z,94.97
2023-02-12T05:46:22.160Z,94.71
2023-02-12T05:46:53.619Z,95.24
2023-02-12T05:47:24.975Z,95.20
2023-02-12T05:47:57.034Z,95.12
2023-02-12T05:48:29.638Z,95.13
2023-02-12T05:49:01.033Z,94.95
2023-02-12T05:49:32.494Z,95.13
2023-02-12T05:50:04.143Z,94.75
2023-02-12T05:50:36.475Z,95.08
2023-02-12T05:51:13.579Z,94.85
2023-02-12T05:51:45.087Z,95.15
2023-02-12T05:52:16.556Z,95.24
2023-02-12T05:52:48.313Z,95.12
2023-02-12T05:53:20.231Z,95.08
2023-02-12T05:53:56.418Z,95.22
2023-02-12T05:54:27.873Z,94.83
2023-02-12T05:54:59.337Z,94.97
2023-02-12T05:55:31.235Z,95.13
2023-02-12T05:56:12.129Z,94.70
2023-02-12T05:56:46.586Z,94.98
2023-02-12T05:57:18.202Z,95.50
2023-02-12T05:57:52.723Z,94.94
2023-02-12T05:58:24.204Z,95.38
2023-02-12T05:59:03.235Z,95.11
2023-02-12T05:59:34.644Z,95.25
2023-02-12T06:00:08.720Z,94.94
2023-02-12T06:00:40.627Z,95.05
2023-02-12T06:01:28.010Z,94.92
2023-02-12T06:01:59.402Z,95.04
2023-02-12T06:02:30.927Z,95.05
2023-02-12T06:03:02.437Z,95.32
2023-02-12T06:03:33.834Z,95.49
2023-02-12T06:04:08.961Z,95.24
2023-02-12T06:04:42.946Z,95.64
2023-02-12T06:05:16.864Z,95.75
2023-02-12T06:05:52.208Z,95.11
2023-02-12T06:06:26.352Z,95.66
2023-02-12T06:06:57.872Z,95.14
2023-02-12T06:07:29.451Z,95.08
2023-02-12T06:08:00.955Z,95.54
2023-02-12T06:08:32.648Z,95.58
2023-02-12T06:09:04.208Z,95.36
2023-02-12T06:09:35.646Z,95.64
2023-02-12T06:10:08.047Z,95.17
2023-02-12T06:10:39.482Z,95.63
2023-02-12T06:11:13.746Z,95.11
2023-02-12T06:11:45.329Z,95.27
2023-02-12T06:12:16.880Z,95.55
2023-02-12T06:12:48.286Z,94.82
2023-02-12T06:13:19.760Z,95.28
2023-02-12T06:13:51.681Z,95.15
2023-02-12T06:14:23.193Z,95.24
2023-02-12T06:14:54.719Z,95.16
2023-02-12T06:15:26.186Z,94.59
2023-02-12T06:15:58.693Z,94.85
2023-02-12T06:16:31.108Z,94.49
2023-02-12T06:17:02.812Z,94.54
2023-02-12T06:17:34.832Z,94.59
2023-02-12T06:18:06.231Z,94.49
2023-02-12T06:18:40.740Z,95.38
2023-02-12T06:19:12.639Z,95.44
2023-02-12T06:19:44.206Z,95.08
2023-02-12T06:20:15.862Z,95.03
2023-02-12T06:20:48.439Z,95.40
2023-02-12T06:21:21.029Z,95.72
2023-02-12T06:21:52.580Z,95.28
2023-02-12T06:22:24.182Z,95.08
2023-02-12T06:22:57.852Z,95.35
2023-02-12T06:23:29.499Z,95.26
2023-02-12T06:24:00.964Z,95.84
2023-02-12T06:24:32.769Z,95.49
2023-02-12T06:25:05.454Z,95.89
2023-02-12T06:25:37.125Z,95.40
2023-02-12T06:26:09.275Z,95.43
2023-02-12T06:26:40.922Z,95.17
2023-02-12T06:27:12.399Z,94.95
2023-02-12T06:27:43.894Z,95.24
2023-02-12T06:28:15.796Z,95.15
2023-02-12T06:28:47.907Z,94.99
2023-02-12T06:29:20.390Z,95.51
2023-02-12T06:29:51.876Z,95.04
2023-02-12T06:30:23.468Z,95.29
2023-02-12T06:30:55.156Z,94.63
2023-02-12T06:31:31.980Z,94.78
2023-02-12T06:32:03.815Z,95.54
2023-02-12T06:32:35.378Z,94.78
2023-02-12T06:33:06.810Z,95.05
2023-02-12T06:33:38.227Z,94.68
2023-02-12T06:34:12.287Z,94.30
2023-02-12T06:34:43.854Z,94.75
2023-02-12T06:35:15.447Z,94.76
2023-02-12T06:35:47.819Z,94.85
2023-02-12T06:36:21.516Z,94.43
2023-02-12T06:36:52.983Z,94.50
2023-02-12T06:37:24.367Z,94.45
2023-02-12T06:37:56.338Z,94.25
2023-02-12T06:38:27.736Z,94.45
2023-02-12T06:39:02.615Z,94.44
2023-02-12T06:39:34.031Z,94.23
2023-02-12T06:40:06.461Z,94.45
2023-02-12T06:40:37.993Z,94.48
2023-02-12T06:41:10.227Z,94.07
2023-02-12T06:41:42.293Z,94.30
2023-02-12T06:42:16.274Z,94.42
2023-02-12T06:42:50.124Z,93.76
2023-02-12T06:43:21.800Z,93.93
2023-02-12T06:43:53.225Z,94.37
2023-02-12T06:44:24.650Z,94.38
2023-02-12T06:44:56.080Z,94.18
2023-02-12T06:45:30.130Z,94.37
2023-02-12T06:46:21.080Z,94.07
2023-02-12T06:46:52.579Z,94.17
2023-02-12T06:47:24.221Z,94.58
2023-02-12T06:47:55.650Z,94.84
2023-02-12T06:48:27.092Z,94.41
2023-02-12T06:49:00.631Z,94.42
2023-02-12T06:49:32.200Z,94.18
2023-02-12T06:50:03.978Z,94.88
2023-02-12T06:50:35.475Z,95.04
2023-02-12T06:51:09.671Z,94.64
2023-02-12T06:51:41.683Z,94.65
2023-02-12T06:52:14.159Z,95.13
2023-02-12T06:52:46.827Z,95.04
2023-02-12T06:53:18.293Z,94.62
2023-02-12T06:53:52.027Z,94.65
2023-02-12T06:54:23.398Z,94.59
2023-02-12T06:54:54.843Z,94.72
2023-02-12T06:55:26.357Z,94.24
2023-02-12T06:55:58.037Z,94.31
2023-02-12T06:56:29.519Z,93.99
2023-02-12T06:57:01.009Z,94.71
2023-02-12T06:57:33.472Z,94.95
2023-02-12T06:58:05.044Z,94.52
2023-02-12T06:58:37.078Z,94.70
2023-02-12T06:59:13.546Z,94.25
2023-02-12T06:59:45.032Z,94.45
2023-02-12T07:00:17.119Z,94.64
2023-02-12T07:00:48.675Z,94.17
2023-02-12T07:01:22.967Z,95.06
2023-02-12T07:01:54.371Z,95.08
2023-02-12T07:02:25.922Z,94.71
2023-02-12T07:02:57.671Z,94.57
2023-02-12T07:03:29.122Z,94.63
2023-02-12T07:04:02.946Z,94.62
2023-02-12T07:04:34.524Z,93.99
2023-02-12T07:05:06.175Z,94.25
2023-02-12T07:05:40.095Z,94.46
2023-02-12T07:06:11.618Z,93.95
2023-02-12T07:06:43.141Z,94.55
2023-02-12T07:07:14.829Z,93.96
2023-02-12T07:07:46.407Z,93.65
2023-02-12T07:08:17.958Z,93.79
2023-02-12T07:08:49.529Z,93.90
2023-02-12T07:09:20.986Z,93.74
2023-02-12T07:10:10.648Z,94.13
2023-02-12T07:10:41.982Z,93.59
2023-02-12T07:11:13.704Z,94.36
2023-02-12T07:11:45.163Z,94.25
2023-02-12T07:12:16.766Z,94.11
2023-02-12T07:12:48.171Z,94.23
2023-02-12T07:13:19.748Z,94.57
2023-02-12T07:13:51.196Z,94.18
2023-02-12T07:14:22.719Z,94.12
2023-02-12T07:15:43.202Z,93.86
2023-02-12T07:16:16.200Z,94.21
2023-02-12T07:16:47.715Z,93.85
2023-02-12T07:17:19.312Z,94.13
2023-02-12T07:17:50.789Z,93.94
2023-02-12T07:18:24.371Z,94.02
2023-02-12T07:18:55.973Z,94.09
2023-02-12T07:19:27.458Z,94.04
2023-02-12T07:19:58.897Z,93.87
2023-02-12T07:20:30.384Z,93.71
2023-02-12T07:21:02.087Z,93.96
2023-02-12T07:21:33.730Z,94.38
2023-02-12T07:22:05.275Z,93.89
2023-02-12T07:22:40.096Z,94.31
2023-02-12T07:23:12.651Z,94.34
2023-02-12T07:23:51.247Z,94.50
2023-02-12T07:24:23.025Z,93.87
2023-02-12T07:24:55.596Z,94.21
2023-02-12T07:25:26.967Z,94.05
2023-02-12T07:26:00.547Z,94.33
2023-02-12T07:26:31.994Z,93.70
2023-02-12T07:27:03.561Z,94.38
2023-02-12T07:27:38.119Z,93.82
2023-02-12T07:28:11.669Z,93.71
2023-02-12T07:28:43.838Z,94.47
2023-02-12T07:30:07.360Z,93.76
2023-02-12T07:30:40.527Z,93.94
2023-02-12T07:31:16.093Z,93.89
2023-02-12T07:31:47.753Z,94.05
2023-02-12T07:32:19.299Z,93.86
2023-02-12T07:32:50.721Z,94.22
2023-02-12T07:33:22.140Z,93.83
2023-02-12T07:33:55.258Z,94.07
2023-02-12T07:34:26.763Z,94.11
2023-02-12T07:34:58.179Z,93.61
2023-02-12T07:35:29.559Z,93.53
2023-02-12T07:36:01.732Z,93.70
2023-02-12T07:36:33.740Z,93.85
2023-02-12T07:37:08.814Z,94.08
2023-02-12T07:37:40.172Z,94.01
2023-02-12T07:38:11.930Z,93.74
2023-02-12T07:38:43.758Z,94.02
2023-02-12T07:39:15.421Z,93.25
2023-02-12T07:39:49.972Z,94.00
2023-02-12T07:40:21.406Z,94.06
2023-02-12T07:40:52.832Z,93.58
2023-02-12T07:41:35.596Z,93.76
2023-02-12T07:42:09.073Z,93.77
2023-02-12T07:42:40.563Z,93.52
2023-02-12T07:43:12.001Z,93.75